LPA weather

Gran Canaria Airport
Gran Canaria Island, Canary Islands, Spain

Public forecast

Using degrees Celsius for public forecast. Weather courtesy of forecast.io.

METAR (pilot weather report)

Retrieved 2018/05/27 00:30 UTC (24 minutes ago):

GCLP 270030Z 36011KT 9999 SCT045 18/12 Q1020 NOSIG

TAF (pilot weather forecast)

Retrieved 2018/05/26 21:38 UTC (3 hours ago):

TAF GCLP 262000Z 2621/2721 36015KT 9999 FEW025 SCT045 TX24/2714Z TN18/2705Z